createdAt,value
2019-02-06T00:00:55.750Z,18.10
2019-02-06T00:03:26.802Z,25.30
2019-02-06T00:05:57.919Z,21.70
2019-02-06T00:08:28.915Z,16.57
2019-02-06T00:11:18.912Z,16.07
2019-02-06T00:13:49.720Z,20.75
2019-02-06T00:16:20.690Z,16.62
2019-02-06T00:18:51.640Z,18.90
2019-02-06T00:21:22.511Z,27.33
2019-02-06T00:23:53.371Z,23.97
2019-02-06T00:26:24.241Z,17.23
2019-02-06T00:28:55.451Z,19.02
2019-02-06T00:31:26.295Z,23.62
2019-02-06T00:33:57.055Z,18.07
2019-02-06T00:36:28.138Z,21.40
2019-02-06T00:38:59.343Z,19.87
2019-02-06T00:41:31.535Z,24.80
2019-02-06T00:44:02.444Z,20.37
2019-02-06T00:46:33.267Z,25.68
2019-02-06T00:49:04.381Z,20.88
2019-02-06T00:51:35.286Z,18.23
2019-02-06T00:54:06.303Z,21.17
2019-02-06T00:56:37.082Z,20.77
2019-02-06T00:59:07.911Z,28.03
2019-02-06T01:01:39.830Z,26.27
2019-02-06T01:04:10.923Z,25.30
2019-02-06T01:06:41.849Z,21.70
2019-02-06T01:09:12.884Z,21.45
2019-02-06T01:11:43.784Z,24.55
2019-02-06T01:14:14.720Z,22.15
2019-02-06T01:16:45.642Z,22.98
2019-02-06T01:19:16.507Z,25.60
2019-02-06T01:21:47.445Z,20.72
2019-02-06T01:24:18.360Z,26.27
2019-02-06T01:26:49.293Z,19.25
2019-02-06T01:29:20.063Z,20.90
2019-02-06T01:31:51.358Z,25.60
2019-02-06T01:34:22.228Z,20.70
2019-02-06T01:36:52.995Z,19.50
2019-02-06T01:39:23.848Z,20.90
2019-02-06T01:41:54.760Z,22.55
2019-02-06T01:44:25.965Z,20.75
2019-02-06T01:46:57.008Z,28.98
2019-02-06T01:49:27.889Z,22.30
2019-02-06T01:51:59.072Z,22.67
2019-02-06T01:54:30.896Z,20.00
2019-02-06T01:57:01.687Z,25.25
2019-02-06T01:59:32.983Z,20.17
2019-02-06T02:02:03.824Z,22.73
2019-02-06T02:04:34.813Z,19.45
2019-02-06T02:07:05.824Z,20.23
2019-02-06T02:09:36.852Z,24.63
2019-02-06T02:12:07.797Z,25.23
2019-02-06T02:14:38.754Z,21.82
2019-02-06T02:17:09.662Z,20.35
2019-02-06T02:19:40.650Z,19.02
2019-02-06T02:22:11.636Z,26.85
2019-02-06T02:24:42.611Z,27.37
2019-02-06T02:27:13.532Z,27.95
2019-02-06T02:29:44.491Z,23.27
2019-02-06T02:32:15.812Z,19.50
2019-02-06T02:34:47.072Z,21.48
2019-02-06T02:37:19.069Z,18.90
2019-02-06T02:39:50.489Z,15.53
2019-02-06T02:42:21.422Z,15.88
2019-02-06T02:44:52.311Z,16.93
2019-02-06T02:47:23.241Z,17.25
2019-02-06T02:49:54.372Z,15.95
2019-02-06T02:52:25.516Z,13.98
2019-02-06T02:54:56.551Z,16.93
2019-02-06T02:57:27.607Z,14.20
2019-02-06T02:59:58.657Z,16.48
2019-02-06T03:02:57.986Z,14.30
2019-02-06T03:05:31.372Z,14.15
2019-02-06T03:08:02.324Z,14.90
2019-02-06T03:10:33.330Z,13.25
2019-02-06T03:13:04.882Z,12.47
2019-02-06T03:15:35.696Z,15.50
2019-02-06T03:18:07.034Z,14.00
2019-02-06T03:20:37.997Z,15.28
2019-02-06T03:23:08.783Z,14.33
2019-02-06T03:25:39.883Z,16.05
2019-02-06T03:28:10.707Z,14.55
2019-02-06T03:30:41.629Z,14.65
2019-02-06T03:33:12.544Z,13.20
2019-02-06T03:35:43.733Z,14.18
2019-02-06T03:38:14.970Z,13.60
2019-02-06T03:40:46.071Z,14.80
2019-02-06T03:43:16.921Z,15.53
2019-02-06T03:45:48.244Z,15.68
2019-02-06T03:48:19.056Z,15.30
2019-02-06T03:50:50.250Z,13.53
2019-02-06T03:53:21.639Z,15.32
2019-02-06T03:55:52.734Z,15.13
2019-02-06T03:58:23.642Z,14.83
2019-02-06T04:00:54.503Z,14.43
2019-02-06T04:03:25.430Z,16.15
2019-02-06T04:05:56.383Z,17.80
2019-02-06T04:08:27.325Z,14.53
2019-02-06T04:10:58.060Z,16.90
2019-02-06T04:13:28.850Z,15.50
2019-02-06T04:15:59.635Z,15.73
2019-02-06T04:18:30.777Z,15.53
2019-02-06T04:21:02.337Z,17.52
2019-02-06T04:23:33.275Z,16.40
2019-02-06T04:26:04.245Z,16.07
2019-02-06T04:28:35.175Z,15.80
2019-02-06T04:31:06.303Z,17.17
2019-02-06T04:33:37.457Z,17.27
2019-02-06T04:36:08.384Z,15.35
2019-02-06T04:38:39.150Z,15.70
2019-02-06T04:41:09.974Z,15.72
2019-02-06T04:43:41.242Z,16.55
2019-02-06T04:46:12.442Z,18.07
2019-02-06T04:48:43.212Z,18.05
2019-02-06T04:51:14.031Z,17.63
2019-02-06T04:53:44.841Z,18.17
2019-02-06T04:56:15.708Z,17.33
2019-02-06T04:58:46.749Z,16.10
2019-02-06T05:01:17.939Z,16.97
2019-02-06T05:03:48.868Z,17.25
2019-02-06T05:06:20.047Z,17.75
2019-02-06T05:08:51.204Z,16.12
2019-02-06T05:11:22.328Z,16.13
2019-02-06T05:13:53.087Z,15.18
2019-02-06T05:16:27.799Z,17.90
2019-02-06T05:19:05.381Z,16.42
2019-02-06T05:21:36.347Z,16.80
2019-02-06T05:24:07.116Z,17.80
2019-02-06T05:26:38.304Z,18.55
2019-02-06T05:29:09.171Z,17.00
2019-02-06T05:31:40.334Z,18.33
2019-02-06T05:34:11.153Z,17.23
2019-02-06T05:36:41.895Z,17.50
2019-02-06T05:39:12.798Z,16.27
2019-02-06T05:41:43.532Z,17.23
2019-02-06T05:44:14.667Z,19.77
2019-02-06T05:46:45.489Z,18.12
2019-02-06T05:49:17.228Z,18.00
2019-02-06T05:51:48.283Z,19.20
2019-02-06T05:54:19.601Z,21.75
2019-02-06T05:56:50.517Z,18.45
2019-02-06T05:59:21.625Z,18.52
2019-02-06T06:01:52.908Z,17.13
2019-02-06T06:04:23.720Z,17.75
2019-02-06T06:06:54.443Z,17.62
2019-02-06T06:09:25.655Z,18.27
2019-02-06T06:11:56.469Z,16.50
2019-02-06T06:14:27.303Z,19.35
2019-02-06T06:16:58.179Z,17.27
2019-02-06T06:19:29.012Z,19.70
2019-02-06T06:22:01.293Z,18.45
2019-02-06T06:24:32.205Z,17.60
2019-02-06T06:27:03.044Z,19.42
2019-02-06T06:29:34.857Z,18.12
2019-02-06T06:32:05.782Z,18.90
2019-02-06T06:34:36.705Z,18.82
2019-02-06T06:37:07.635Z,17.60
2019-02-06T06:39:38.403Z,18.02
2019-02-06T06:42:09.345Z,20.35
2019-02-06T06:44:40.267Z,19.57
2019-02-06T06:47:11.112Z,18.15
2019-02-06T06:49:42.483Z,19.50
2019-02-06T06:52:13.598Z,17.30
2019-02-06T06:54:44.330Z,19.15
2019-02-06T06:57:15.167Z,22.40
2019-02-06T06:59:46.517Z,19.27
2019-02-06T07:02:17.295Z,17.73
2019-02-06T07:04:48.110Z,19.23
2019-02-06T07:07:19.020Z,17.52
2019-02-06T07:09:50.067Z,18.73
2019-02-06T07:12:20.823Z,17.60
2019-02-06T07:14:51.805Z,17.75
2019-02-06T07:17:22.560Z,18.75
2019-02-06T07:20:11.019Z,16.07
2019-02-06T07:22:45.303Z,19.25
2019-02-06T07:25:17.256Z,18.05
2019-02-06T07:27:48.435Z,17.73
2019-02-06T07:30:27.739Z,16.97
2019-02-06T07:32:58.940Z,17.32
2019-02-06T07:35:30.005Z,14.85
2019-02-06T07:38:01.273Z,17.62
2019-02-06T07:40:32.290Z,16.25
2019-02-06T07:43:03.523Z,15.90
2019-02-06T07:45:34.753Z,18.77
2019-02-06T07:48:05.644Z,14.98
2019-02-06T07:50:36.616Z,15.08
2019-02-06T07:53:07.787Z,16.62
2019-02-06T07:55:38.635Z,16.55
2019-02-06T07:58:09.693Z,15.68
2019-02-06T08:00:40.608Z,16.75
2019-02-06T08:03:11.748Z,15.38
2019-02-06T08:05:43.006Z,16.02
2019-02-06T08:08:13.837Z,17.87
2019-02-06T08:10:44.957Z,15.48
2019-02-06T08:13:15.827Z,16.70
2019-02-06T08:15:47.498Z,15.45
2019-02-06T08:18:18.709Z,14.60
2019-02-06T08:20:50.211Z,15.55
2019-02-06T08:23:20.992Z,14.45
2019-02-06T08:25:52.287Z,14.65
2019-02-06T08:28:23.102Z,14.38
2019-02-06T08:30:55.319Z,14.78
2019-02-06T08:33:26.205Z,14.25
2019-02-06T08:35:57.088Z,13.28
2019-02-06T08:38:27.988Z,14.50
2019-02-06T08:40:58.807Z,14.63
2019-02-06T08:43:29.958Z,13.10
2019-02-06T08:46:00.712Z,15.20
2019-02-06T08:48:32.101Z,15.15
2019-02-06T08:51:02.954Z,13.83
2019-02-06T08:53:33.771Z,14.10
2019-02-06T08:56:05.669Z,13.78
2019-02-06T08:58:36.904Z,14.70
2019-02-06T09:01:07.733Z,12.88
2019-02-06T09:03:38.568Z,13.45
2019-02-06T09:06:09.471Z,13.75
2019-02-06T09:08:40.308Z,15.60
2019-02-06T09:11:11.608Z,13.45
2019-02-06T09:13:42.539Z,14.23
2019-02-06T09:16:13.361Z,11.97
2019-02-06T09:18:44.278Z,15.50
2019-02-06T09:21:15.101Z,15.03
2019-02-06T09:23:46.047Z,13.75
2019-02-06T09:26:17.012Z,13.72
2019-02-06T09:28:47.790Z,12.88
2019-02-06T09:31:19.640Z,14.65
2019-02-06T09:33:50.399Z,14.18
2019-02-06T09:36:21.863Z,12.10
2019-02-06T09:38:52.948Z,15.18
2019-02-06T09:41:23.720Z,13.50
2019-02-06T09:43:54.554Z,14.18
2019-02-06T09:46:25.496Z,13.48
2019-02-06T09:48:56.342Z,11.90
2019-02-06T09:51:27.148Z,14.10
2019-02-06T09:53:58.278Z,12.82
2019-02-06T09:56:29.183Z,13.10
2019-02-06T09:59:00.034Z,14.98
2019-02-06T10:01:30.786Z,14.95
2019-02-06T10:04:01.876Z,14.28
2019-02-06T10:06:33.446Z,13.55
2019-02-06T10:09:07.401Z,13.85
2019-02-06T10:11:38.333Z,12.07
2019-02-06T10:14:09.206Z,13.70
2019-02-06T10:16:40.103Z,17.17
2019-02-06T10:19:11.427Z,12.65
2019-02-06T10:21:42.671Z,12.13
2019-02-06T10:24:13.523Z,15.25
2019-02-06T10:26:44.436Z,17.67
2019-02-06T10:29:15.308Z,13.65
2019-02-06T10:31:46.529Z,14.07
2019-02-06T10:34:17.646Z,16.10
2019-02-06T10:36:48.483Z,13.45
2019-02-06T10:39:19.297Z,15.30
2019-02-06T10:41:50.120Z,15.43
2019-02-06T10:44:21.432Z,13.73
2019-02-06T10:46:52.435Z,12.00
2019-02-06T10:49:23.213Z,15.25
2019-02-06T10:51:55.020Z,14.93
2019-02-06T10:54:26.076Z,12.10
2019-02-06T10:56:57.242Z,12.85
2019-02-06T10:59:28.508Z,12.68
2019-02-06T11:02:00.262Z,14.38
2019-02-06T11:04:31.041Z,15.88
2019-02-06T11:07:02.115Z,13.03
2019-02-06T11:09:32.908Z,13.65
2019-02-06T11:12:03.856Z,13.40
2019-02-06T11:14:34.666Z,14.70
2019-02-06T11:17:05.866Z,13.67
2019-02-06T11:19:36.648Z,13.50
2019-02-06T11:22:07.545Z,15.80
2019-02-06T11:24:38.492Z,16.00
2019-02-06T11:27:09.740Z,15.18
2019-02-06T11:29:40.727Z,14.20
2019-02-06T11:32:11.651Z,15.40
2019-02-06T11:34:42.512Z,15.13
2019-02-06T11:37:13.538Z,17.23
2019-02-06T11:39:45.139Z,15.55
2019-02-06T11:42:16.065Z,14.78
2019-02-06T11:44:46.923Z,13.72
2019-02-06T11:47:17.745Z,14.10
2019-02-06T11:49:50.645Z,15.18
2019-02-06T11:52:23.338Z,15.48
2019-02-06T11:54:54.115Z,15.38
2019-02-06T11:57:24.977Z,13.50
2019-02-06T11:59:55.797Z,12.58
2019-02-06T12:02:37.071Z,14.85
2019-02-06T12:04:59.730Z,14.47
2019-02-06T12:07:30.498Z,15.20
2019-02-06T12:10:09.307Z,16.57
2019-02-06T12:12:33.817Z,15.58
2019-02-06T12:15:07.460Z,12.70
2019-02-06T12:17:38.289Z,16.17
2019-02-06T12:20:12.438Z,14.70
2019-02-06T12:22:43.565Z,15.30
2019-02-06T12:25:15.413Z,14.07
2019-02-06T12:27:47.404Z,15.43
2019-02-06T12:30:24.483Z,12.28
2019-02-06T12:32:55.295Z,12.45
2019-02-06T12:35:26.349Z,13.35
2019-02-06T12:37:57.546Z,14.38
2019-02-06T12:40:28.604Z,13.10
2019-02-06T12:42:59.461Z,14.73
2019-02-06T12:45:31.297Z,14.23
2019-02-06T12:48:02.125Z,14.18
2019-02-06T12:50:33.231Z,14.07
2019-02-06T12:53:04.286Z,14.13
2019-02-06T12:55:36.622Z,13.28
2019-02-06T12:58:08.495Z,13.25
2019-02-06T13:00:40.854Z,15.18
2019-02-06T13:03:11.774Z,13.98
2019-02-06T13:05:43.007Z,12.68
2019-02-06T13:08:16.953Z,14.17
2019-02-06T13:10:46.573Z,13.62
2019-02-06T13:13:17.928Z,13.88
2019-02-06T13:15:48.897Z,13.70
2019-02-06T13:18:19.724Z,11.63
2019-02-06T13:20:51.554Z,12.28
2019-02-06T13:23:22.488Z,13.38
2019-02-06T13:25:53.684Z,13.40
2019-02-06T13:28:24.443Z,15.48
2019-02-06T13:30:55.384Z,13.43
2019-02-06T13:33:26.276Z,13.60
2019-02-06T13:35:57.110Z,12.50
2019-02-06T13:38:27.920Z,11.12
2019-02-06T13:40:58.894Z,13.55
2019-02-06T13:43:29.695Z,16.23
2019-02-06T13:46:00.631Z,12.98
2019-02-06T13:48:33.769Z,14.40
2019-02-06T13:51:16.465Z,14.25
2019-02-06T13:53:37.690Z,10.47
2019-02-06T13:56:08.702Z,10.70
2019-02-06T13:58:39.482Z,12.53
2019-02-06T14:01:10.423Z,12.33
2019-02-06T14:03:41.699Z,10.80
2019-02-06T14:06:12.925Z,14.85
2019-02-06T14:08:43.803Z,12.47
2019-02-06T14:11:14.650Z,12.53
2019-02-06T14:13:45.423Z,12.23
2019-02-06T14:16:17.367Z,11.38
2019-02-06T14:18:48.731Z,13.90
2019-02-06T14:21:19.691Z,11.57
2019-02-06T14:24:11.160Z,12.23
2019-02-06T14:26:54.579Z,12.82
2019-02-06T14:30:01.997Z,11.12
2019-02-06T14:33:07.501Z,11.22
2019-02-06T14:35:52.963Z,11.93
2019-02-06T14:39:05.204Z,11.70
2019-02-06T14:42:07.145Z,12.13
2019-02-06T14:44:48.056Z,12.60
2019-02-06T14:47:43.117Z,12.53
2019-02-06T14:50:36.597Z,11.08
2019-02-06T14:53:53.806Z,11.12
2019-02-06T14:57:18.309Z,12.10
2019-02-06T15:00:24.592Z,9.40
2019-02-06T15:03:26.944Z,8.83
2019-02-06T15:06:36.148Z,11.43
2019-02-06T15:09:48.403Z,14.33
2019-02-06T15:12:41.149Z,13.85
2019-02-06T15:15:22.501Z,10.32
2019-02-06T15:19:10.687Z,13.68
2019-02-06T15:22:02.266Z,12.98
2019-02-06T15:25:02.296Z,11.30
2019-02-06T15:28:16.508Z,12.53
2019-02-06T15:31:17.569Z,14.60
2019-02-06T15:34:38.541Z,10.10
2019-02-06T15:37:37.690Z,14.07
2019-02-06T15:40:54.840Z,14.83
2019-02-06T15:43:40.910Z,12.60
2019-02-06T15:46:40.864Z,16.27
2019-02-06T15:49:32.110Z,19.48
2019-02-06T15:52:22.474Z,9.97
2019-02-06T15:55:37.676Z,13.03
2019-02-06T15:58:53.955Z,13.22
2019-02-06T16:01:53.271Z,12.33
2019-02-06T16:05:57.547Z,14.45
2019-02-06T16:08:36.583Z,9.57
2019-02-06T16:11:44.103Z,12.88
2019-02-06T16:15:03.676Z,12.23
2019-02-06T16:18:05.154Z,9.30
2019-02-06T16:21:26.038Z,13.48
2019-02-06T16:24:40.730Z,11.03
2019-02-06T16:27:49.304Z,10.10
2019-02-06T16:31:00.024Z,9.55
2019-02-06T16:34:03.736Z,11.43
2019-02-06T16:37:15.150Z,9.85
2019-02-06T16:40:32.841Z,9.70
2019-02-06T16:43:39.367Z,10.10
2019-02-06T16:46:46.630Z,13.75
2019-02-06T16:49:35.300Z,10.97
2019-02-06T16:52:33.550Z,12.33
2019-02-06T16:55:35.098Z,9.95
2019-02-06T16:58:46.546Z,9.93
2019-02-06T17:01:45.987Z,9.60
2019-02-06T17:05:16.977Z,10.43
2019-02-06T17:08:35.220Z,8.83
2019-02-06T17:11:35.235Z,9.88
2019-02-06T17:14:35.950Z,9.40
2019-02-06T17:17:42.025Z,9.23
2019-02-06T17:20:50.655Z,9.65
2019-02-06T17:23:36.935Z,10.08
2019-02-06T17:26:42.475Z,10.60
2019-02-06T17:29:32.075Z,8.63
2019-02-06T17:32:41.419Z,9.00
2019-02-06T17:35:42.694Z,9.18
2019-02-06T17:38:42.234Z,9.35
2019-02-06T17:41:45.343Z,9.25
2019-02-06T17:44:52.025Z,8.30
2019-02-06T17:47:40.823Z,8.35
2019-02-06T17:50:58.943Z,8.83
2019-02-06T17:53:41.026Z,10.48
2019-02-06T17:56:11.823Z,10.13
2019-02-06T17:58:44.331Z,11.22
2019-02-06T18:01:52.006Z,11.85
2019-02-06T18:04:28.966Z,11.60
2019-02-06T18:07:00.508Z,12.23
2019-02-06T18:09:31.545Z,12.45
2019-02-06T18:12:02.444Z,14.58
2019-02-06T18:14:33.266Z,14.05
2019-02-06T18:17:05.804Z,13.22
2019-02-06T18:19:39.065Z,15.10
2019-02-06T18:22:10.306Z,13.45
2019-02-06T18:24:42.814Z,13.20
2019-02-06T18:27:13.562Z,13.03
2019-02-06T18:29:45.020Z,14.87
2019-02-06T18:32:16.028Z,13.70
2019-02-06T18:34:47.089Z,15.70
2019-02-06T18:37:18.367Z,13.35
2019-02-06T18:39:50.246Z,12.82
2019-02-06T18:42:21.515Z,13.13
2019-02-06T18:44:52.777Z,16.52
2019-02-06T18:47:23.723Z,14.43
2019-02-06T18:49:55.013Z,14.98
2019-02-06T18:52:26.299Z,15.08
2019-02-06T18:54:57.770Z,15.17
2019-02-06T18:57:29.502Z,13.50
2019-02-06T19:00:00.887Z,14.40
2019-02-06T19:02:32.584Z,14.30
2019-02-06T19:05:05.275Z,15.05
2019-02-06T19:07:36.998Z,13.63
2019-02-06T19:10:10.550Z,14.60
2019-02-06T19:12:47.802Z,16.30
2019-02-06T19:15:16.574Z,14.38
2019-02-06T19:17:48.251Z,16.57
2019-02-06T19:20:19.561Z,16.15
2019-02-06T19:22:50.860Z,17.87
2019-02-06T19:25:23.972Z,20.82
2019-02-06T19:27:56.314Z,17.25
2019-02-06T19:30:30.846Z,16.30
2019-02-06T19:33:02.952Z,14.60
2019-02-06T19:35:34.626Z,16.95
2019-02-06T19:38:06.695Z,16.05
2019-02-06T19:40:39.339Z,16.07
2019-02-06T19:43:11.742Z,16.25
2019-02-06T19:45:44.769Z,15.08
2019-02-06T19:48:20.260Z,15.05
2019-02-06T19:50:52.213Z,17.80
2019-02-06T19:53:25.586Z,16.10
2019-02-06T19:55:58.318Z,17.05
2019-02-06T19:58:30.290Z,16.55
2019-02-06T20:01:03.320Z,14.60
2019-02-06T20:03:35.718Z,14.43
2019-02-06T20:06:07.760Z,15.65
2019-02-06T20:08:39.593Z,15.48
2019-02-06T20:11:11.538Z,16.07
2019-02-06T20:13:43.058Z,15.43
2019-02-06T20:16:15.327Z,17.32
2019-02-06T20:18:47.318Z,18.32
2019-02-06T20:21:20.546Z,20.40
2019-02-06T20:23:52.407Z,17.75
2019-02-06T20:26:25.283Z,16.57
2019-02-06T20:28:57.311Z,19.17
2019-02-06T20:31:30.386Z,16.27
2019-02-06T20:34:04.047Z,18.02
2019-02-06T20:36:36.394Z,17.57
2019-02-06T20:39:10.524Z,17.95
2019-02-06T20:41:42.945Z,17.75
2019-02-06T20:44:15.754Z,21.70
2019-02-06T20:46:50.354Z,21.48
2019-02-06T20:49:23.021Z,20.95
2019-02-06T20:51:56.573Z,16.02
2019-02-06T20:54:28.065Z,18.52
2019-02-06T20:57:00.018Z,18.15
2019-02-06T20:59:33.171Z,17.90
2019-02-06T21:02:05.482Z,17.67
2019-02-06T21:04:37.454Z,17.85
2019-02-06T21:07:09.688Z,17.12
2019-02-06T21:09:41.900Z,19.62
2019-02-06T21:12:14.251Z,18.10
2019-02-06T21:14:45.643Z,17.77
2019-02-06T21:17:17.329Z,16.90
2019-02-06T21:19:48.767Z,16.70
2019-02-06T21:22:20.511Z,16.83
2019-02-06T21:24:51.740Z,17.98
2019-02-06T21:27:22.574Z,17.10
2019-02-06T21:29:53.725Z,18.42
2019-02-06T21:32:24.595Z,18.77
2019-02-06T21:34:55.699Z,20.02
2019-02-06T21:37:27.146Z,19.73
2019-02-06T21:39:58.026Z,20.20
2019-02-06T21:42:28.855Z,18.85
2019-02-06T21:44:59.762Z,21.12
2019-02-06T21:47:30.917Z,20.88
2019-02-06T21:50:01.847Z,20.55
2019-02-06T21:52:32.850Z,19.98
2019-02-06T21:55:04.748Z,23.38
2019-02-06T21:57:36.635Z,18.82
2019-02-06T22:00:12.378Z,18.65
2019-02-06T22:02:43.408Z,19.77
2019-02-06T22:05:14.503Z,21.50
2019-02-06T22:07:46.886Z,20.45
2019-02-06T22:10:18.362Z,22.62
2019-02-06T22:12:49.374Z,19.97
2019-02-06T22:15:22.730Z,20.50
2019-02-06T22:17:54.030Z,21.82
2019-02-06T22:20:26.211Z,23.00
2019-02-06T22:22:57.193Z,22.77
2019-02-06T22:25:28.096Z,22.63
2019-02-06T22:27:59.236Z,23.62
2019-02-06T22:30:30.131Z,23.77
2019-02-06T22:33:01.046Z,21.10
2019-02-06T22:35:31.922Z,22.32
2019-02-06T22:38:02.962Z,21.68
2019-02-06T22:40:33.817Z,23.12
2019-02-06T22:43:04.967Z,20.97
2019-02-06T22:45:35.796Z,23.40
2019-02-06T22:48:06.822Z,23.22
2019-02-06T22:50:38.068Z,23.50
2019-02-06T22:53:08.953Z,23.27
2019-02-06T22:55:40.274Z,24.10
2019-02-06T22:58:11.160Z,25.27
2019-02-06T23:01:16.275Z,25.70
2019-02-06T23:03:48.016Z,24.75
2019-02-06T23:06:19.305Z,26.05
2019-02-06T23:08:50.242Z,29.10
2019-02-06T23:11:21.070Z,22.40
2019-02-06T23:13:51.975Z,24.23
2019-02-06T23:16:23.007Z,26.73
2019-02-06T23:18:53.933Z,24.98
2019-02-06T23:21:25.434Z,29.52
2019-02-06T23:23:56.270Z,25.60
2019-02-06T23:26:27.565Z,28.67
2019-02-06T23:28:58.438Z,26.35
2019-02-06T23:31:29.434Z,25.17
2019-02-06T23:34:01.627Z,25.92
2019-02-06T23:36:33.533Z,23.27
2019-02-06T23:39:12.850Z,27.00
2019-02-06T23:41:43.963Z,25.17
2019-02-06T23:44:15.247Z,23.50
2019-02-06T23:46:46.279Z,23.47
2019-02-06T23:49:17.019Z,27.05
2019-02-06T23:51:48.165Z,25.00
2019-02-06T23:54:19.307Z,23.95
2019-02-06T23:56:50.411Z,24.40
2019-02-06T23:59:21.273Z,22.97
